Alkor — DBND — position and weather

sailwx.info

Track history (hours):
 
Tides and Currents Weather Stations Pressure Air Temp Water Temp Dewpoint Dewpoint Depression Visibility Wind Speed Wind Dir Waves Ship Positions

Oceanographic research ship Alkor (Germany)

Ship's website: http://www.briese.de/

Detailed information on ship capabilities available from University of Delaware's Ocean Information Center.

Last reported at 2020-Jan-18 13:21 UTC. Time now 2020-Jan-19 17:11 UTC.
Position N 49°44' W 003°31'.

Length 55 m; draft 4.2 m.

Type: Ship. MMSI: 211216512.

Date/timePositionNaut miles runAvg speedWind from/ knotsBaromVisibWave heightAir tempDewpointWater temp
2020-Jan-18 13:21N 49°44' W 003°31'2910.3
2020-Jan-18 10:30N 49°58' W 002°51'611.1
2020-Jan-18 09:56N 49°59' W 002°42'84 9.4
2020-Jan-18 00:56N 50°01' W 000°30'3 3.7
2020-Jan-18 00:00N 50°01' W 000°25'  
2020-Jan-14 12:00N 49°54' E 001°06'0 0.0 180 / 191002.7 12.6 9.2 9.5
2020-Jan-14 11:00N 49°54' E 001°06'0 0.0 170 / 171003.3 12.7 9.4
2020-Jan-14 10:00N 49°54' E 001°06'0 0.0 170 / 131003.8 11.4 9.2
2020-Jan-14 09:00N 49°54' E 001°06'0 0.0 170 / 111004.0 10.4 9.5
2020-Jan-14 08:00N 49°54' E 001°06'0 0.0 170 / 91003.9 9.9 9.2
2020-Jan-14 07:00N 49°54' E 001°06'0 0.0 170 / 61004.1 9.2 9.4
2020-Jan-14 06:00N 49°54' E 001°06'0 0.0 250 / 41003.8 8.8 8.0 9.2
2020-Jan-14 05:00N 49°54' E 001°06'0 0.0 240 / 41003.2 8.9 9.0
2020-Jan-14 04:00N 49°54' E 001°06'0 0.0 280 / 111002.8 9.4 9.4
2020-Jan-14 03:00N 49°54' E 001°06'0 0.0 180 / 201001.5 11.4 9.3
2020-Jan-14 02:00N 49°54' E 001°06'0 0.0 180 / 201001.9 11.2 9.2
2020-Jan-14 01:00N 49°54' E 001°06'0 0.0 180 / 221002.2 11.2 9.2
2020-Jan-14 00:00N 49°54' E 001°06'0 0.0 170 / 211002.8 11.6 7.5 9.2
2020-Jan-13 23:00N 49°54' E 001°06'0 0.0 170 / 201003.2 11.9 9.3
2020-Jan-13 22:00N 49°54' E 001°06'0 0.0 170 / 201003.9 11.5 9.2
2020-Jan-13 21:00N 49°54' E 001°06'0 0.0 180 / 211004.5 11.7 9.2
2020-Jan-13 20:00N 49°54' E 001°06'0 0.0 170 / 201005.4 11.2 9.1
2020-Jan-13 19:00N 49°54' E 001°06'0 0.0 170 / 201005.9 11.5 9.1
2020-Jan-13 18:00N 49°54' E 001°06'0 0.0 170 / 191006.5 11.5 7.3 9.0
2020-Jan-13 17:00N 49°54' E 001°06'0 0.0 170 / 181007.2 11.2 9.0
2020-Jan-13 16:00N 49°54' E 001°06'0 0.0 160 / 171007.9 10.9 9.7
2020-Jan-13 15:00N 49°54' E 001°06'0 0.0 160 / 161009.3 10.9 9.4
2020-Jan-13 14:00N 49°54' E 001°06'0 0.0 160 / 111010.8 10.2 9.2
2020-Jan-13 13:00N 49°54' E 001°06'0 0.0 170 / 121011.9 9.4 9.3
2020-Jan-13 12:00N 49°54' E 001°06'0 0.0 160 / 121013.2 8.9 9.3
2020-Jan-13 11:00N 49°54' E 001°06'0 0.0 160 / 131015.2 9.0 9.6
2020-Jan-13 10:00N 49°54' E 001°06'0 0.0 160 / 121016.8 8.4 9.7
2020-Jan-13 09:00N 49°54' E 001°06'0 0.0 170 / 131018.1 6.4 9.6
2020-Jan-13 08:00N 49°54' E 001°06'0 0.0 160 / 121018.4 6.5 9.6
2020-Jan-13 07:00N 49°54' E 001°06'0 0.0 170 / 111018.7 6.4 9.7
2020-Jan-13 06:00N 49°54' E 001°06'0 0.0 160 / 101018.8 6.7 10.3
2020-Jan-13 05:00N 49°54' E 001°06'0 0.0 170 / 91019.8 6.7 10.1
2020-Jan-13 04:00N 49°54' E 001°06'0 0.0 150 / 91020.5 5.7 9.8
2020-Jan-13 03:00N 49°54' E 001°06'0 0.0 140 / 71021.3 5.4 9.6
2020-Jan-13 02:00N 49°54' E 001°06'0 0.0 160 / 71022.2 6.4 9.3
2020-Jan-13 01:00N 49°54' E 001°06'0 0.0 160 / 61022.7 7.0 9.3
2020-Jan-13 00:00N 49°54' E 001°06'0 0.0 170 / 71023.4 7.4 9.3
2020-Jan-12 23:00N 49°54' E 001°06'0 0.0 170 / 71023.7 7.2 9.7
2020-Jan-12 22:00N 49°54' E 001°06'0 0.0 180 / 41024.1 7.7 9.8
2020-Jan-12 21:00N 49°54' E 001°06'0 0.0 170 / 51024.0 8.4 9.7
2020-Jan-12 20:00N 49°54' E 001°06'0 0.0 160 / 51024.1 8.2 9.7
2020-Jan-12 19:00N 49°54' E 001°06'0 0.0 190 / 51024.2 8.9 9.7
2020-Jan-12 18:00N 49°54' E 001°06'0 0.0 180 / 41024.0 9.4 9.9
2020-Jan-12 17:00N 49°54' E 001°06'0 0.0 240 / 61023.7 10.4 9.9
2020-Jan-12 16:00N 49°54' E 001°06'0 0.0 250 / 81023.4 10.9 9.9
2020-Jan-12 15:00N 49°54' E 001°06'0 0.0 260 / 121022.9 10.9 9.8
2020-Jan-12 14:00N 49°54' E 001°06'0 0.0 250 / 101022.1 12.0 9.4
2020-Jan-12 13:00N 49°54' E 001°06'0 0.0 240 / 111022.0 12.4 9.5
2020-Jan-12 12:00N 49°54' E 001°06'0 0.0 230 / 131022.0 12.2 9.7
2020-Jan-12 11:00N 49°54' E 001°06'0 0.0 230 / 111022.6 11.4 9.7
2020-Jan-12 10:00N 49°54' E 001°06'0 0.0 200 / 91022.6 10.2 10.0
2020-Jan-12 09:00N 49°54' E 001°06'0 0.0 200 / 111022.1 9.9 10.1
2020-Jan-12 08:00N 49°54' E 001°06'0 0.0 190 / 141021.3 9.2 10.4
2020-Jan-12 07:00N 49°54' E 001°06'0 0.0 170 / 141021.5 8.4 10.5
2020-Jan-12 06:00N 49°54' E 001°06'0 0.0 180 / 111021.9 8.2 10.3
2020-Jan-12 05:00N 49°54' E 001°06'0 0.0 160 / 161021.9 7.9 10.2
2020-Jan-12 04:00N 49°54' E 001°06'0 0.0 160 / 151022.8 7.2 10.0
2020-Jan-12 03:00N 49°54' E 001°06'0 0.0 170 / 141023.3 7.4 9.4
2020-Jan-12 02:00N 49°54' E 001°06'0 0.0 160 / 121023.8 7.5 9.6
2020-Jan-12 01:00N 49°54' E 001°06'0 0.0 160 / 131024.0 7.5 9.3
2020-Jan-12 00:00N 49°54' E 001°06'0 0.0 160 / 111024.7 8.2 9.7
2020-Jan-11 23:00N 49°54' E 001°06'0 0.0 170 / 131025.4 8.4 9.9
2020-Jan-11 22:00N 49°54' E 001°06'0 0.0 170 / 111026.2 8.2 10.0
2020-Jan-11 21:00N 49°54' E 001°06'0 0.0 170 / 121027.0 8.5 9.9
2020-Jan-11 20:00N 49°54' E 001°06'0 0.0 170 / 111027.5 8.7 9.7
2020-Jan-11 19:00N 49°54' E 001°06'0 0.0 170 / 121028.0 8.9 9.5
2020-Jan-11 18:00N 49°54' E 001°06'0 0.0 170 / 101028.3 8.9 9.9
2020-Jan-11 17:00N 49°54' E 001°06'0 0.0 170 / 111028.4 9.2 9.7
2020-Jan-11 16:00N 49°54' E 001°06'0 0.0 170 / 121028.5 9.2 9.9
2020-Jan-11 15:00N 49°54' E 001°06'0 0.0 170 / 111028.7 9.4 9.8
2020-Jan-11 14:00N 49°54' E 001°06'0 0.0 180 / 101028.9 9.4 9.6
2020-Jan-11 13:00N 49°54' E 001°06'0 0.0 190 / 81029.3 9.4 9.5
2020-Jan-11 12:00N 49°54' E 001°06'0 0.0 170 / 111030.0 8.9 9.3
2020-Jan-11 11:00N 49°54' E 001°06'0 0.0 180 / 101030.7 8.2 9.3
2020-Jan-11 10:00N 49°54' E 001°06'0 0.0 170 / 111031.3 7.9 9.1
2020-Jan-11 09:00N 49°54' E 001°06'6 6.0 180 / 161031.2 6.0 8.9
2020-Jan-11 08:00N 50°00' E 001°06'0 0.0 190 / 201031.1 6.7 9.1
2020-Jan-11 07:00N 50°00' E 001°06'0 0.0 190 / 191031.7 7.0 9.2
2020-Jan-11 06:00N 50°00' E 001°06'4 3.9 190 / 201031.9 6.9 9.2
2020-Jan-11 05:00N 50°00' E 001°00'6 6.0 200 / 191031.8 7.7 9.5
2020-Jan-11 04:00N 50°06' E 001°00'0 0.0 200 / 181031.8 7.5 9.6
2020-Jan-11 03:00N 50°06' E 001°00'0 0.0 210 / 191032.0 8.2 9.7
2020-Jan-11 02:00N 50°06' E 001°00'6 6.0 210 / 191032.1 8.7 9.7
2020-Jan-11 01:00N 50°12' E 001°00'1212.0 220 / 221031.6 9.0 9.8
2020-Jan-11 00:00N 50°24' E 001°00'1212.0 200 / 171031.4 8.9 9.9
2020-Jan-10 23:00N 50°36' E 001°00'6 6.0 220 / 141031.2 9.0 10.7
2020-Jan-10 22:00N 50°42' E 001°00'1414.2 230 / 131030.9 8.9 10.7
2020-Jan-10 21:00N 50°54' E 001°12'10 9.7 220 / 131031.0 8.4 10.5
2020-Jan-10 20:00N 51°00' E 001°24'1616.5 240 / 141030.7 7.9 10.4
2020-Jan-10 19:00N 51°12' E 001°42'1414.2 210 / 101029.9 7.7 10.0
2020-Jan-10 18:00N 51°24' E 001°54'511.3 250 / 71029.2 7.4 9.6
2020-Jan-10 17:31N 51°29' E 001°58'612.1
2020-Jan-10 17:00N 51°34' E 002°04'3187.0
2020-Jan-10 17:00N 51°36' E 002°06'10 9.6 280 / 121028.8 7.7 10.1
2020-Jan-10 16:00N 51°42' E 002°18'10 9.5 290 / 141027.7 7.5 10.3
2020-Jan-10 15:00N 51°48' E 002°30'1414.1 300 / 161026.4 7.4 10.2
2020-Jan-10 14:00N 52°00' E 002°42'7 7.4 320 / 211025.0 7.4 9.9
2020-Jan-10 13:00N 52°00' E 002°54'1111.1 340 / 161023.5 8.2 9.5
2020-Jan-10 12:00N 52°00' E 003°12'1312.6 340 / 231022.2 8.2 9.1
2020-Jan-10 11:00N 52°06' E 003°30'713.7 340 / 251020.3 7.9 8.6
2020-Jan-10 10:30N 52°04' E 003°40'510.6
2020-Jan-10 10:00N 52°06' E 003°48'1514.7 340 / 261018.4 7.9 8.5
2020-Jan-10 09:00N 52°06' E 004°12'2 5.1 330 / 211016.3 7.7 7.8
2020-Jan-10 08:30N 52°06' E 004°16'1 2.3
2020-Jan-10 08:00N 52°06' E 004°18'159.7 320 / 161014.7 7.7 8.6
2020-Jan-10 07:58N 52°06' E 004°16'0 0.0
2020-Jan-10 07:28N 52°06' E 004°16'1 2.4
2020-Jan-10 07:00N 52°06' E 004°18'0 0.0 320 / 111013.1 7.9 9.0
2020-Jan-10 06:00N 52°06' E 004°18'0 0.0 300 / 71012.2 7.9 9.1
2020-Jan-10 05:00N 52°06' E 004°18'0 0.0 230 / 91011.0 8.5 9.0
2020-Jan-10 04:00N 52°06' E 004°18'0 0.0 230 / 81010.3 9.2 9.0
2020-Jan-10 03:00N 52°06' E 004°18'0 0.0 230 / 111009.9 9.4 8.9
2020-Jan-10 02:00N 52°06' E 004°18'1 2.3 220 / 101009.1 9.7 8.8
2020-Jan-10 01:28N 52°06' E 004°16'1 2.4
2020-Jan-10 01:00N 52°06' E 004°18'158.1 220 / 101007.9 9.9 8.9
2020-Jan-10 00:58N 52°06' E 004°16'1 1.2
2020-Jan-10 00:00N 52°06' E 004°18'0 0.0 220 / 101007.7 9.9 8.8
2020-Jan-09 23:00N 52°06' E 004°18'1 1.4 220 / 111007.4 9.9 8.8
2020-Jan-09 22:10N 52°06' E 004°16'1 6.5
2020-Jan-09 22:00N 52°06' E 004°18'0 0.0 200 / 121006.5 12.2 8.5
2020-Jan-09 21:00N 52°06' E 004°18'0 0.0 200 / 131006.5 12.2 8.7
2020-Jan-09 20:00N 52°06' E 004°18'0 0.0 200 / 121006.7 12.4 8.4
2020-Jan-09 19:00N 52°06' E 004°18'156.4 200 / 121006.8 12.2 8.2
2020-Jan-09 18:58N 52°06' E 004°16'1 1.2
2020-Jan-09 18:00N 52°06' E 004°18'1 1.6 200 / 111007.1 12.0 8.9
2020-Jan-09 17:16N 52°06' E 004°16'1 4.2
2020-Jan-09 17:00N 52°06' E 004°18'0 0.0 200 / 111007.3 12.2 8.6
2020-Jan-09 16:00N 52°06' E 004°18'0 0.0 200 / 101007.3 12.4 8.6
2020-Jan-09 15:00N 52°06' E 004°18'1 2.1 200 / 101007.4 12.4 8.5
2020-Jan-09 14:25N 52°06' E 004°16'1 2.7
2020-Jan-09 14:00N 52°06' E 004°18'0 0.0 210 / 121007.5 12.7 8.4
2020-Jan-09 13:00N 52°06' E 004°18'0 0.0 210 / 161007.6 12.5 8.2
2020-Jan-09 12:00N 52°06' E 004°18'0 0.0 200 / 161008.0 12.0 8.1
2020-Jan-09 11:00N 52°06' E 004°18'0 0.0 200 / 161008.8 12.0 8.3
2020-Jan-09 10:00N 52°06' E 004°18'1 1.9 200 / 151009.5 11.7 8.1
2020-Jan-09 09:22N 52°06' E 004°16'1 3.1
2020-Jan-09 09:00N 52°06' E 004°18'158.8 200 / 151009.9 11.9 7.8
2020-Jan-09 08:58N 52°06' E 004°16'0 0.4
2020-Jan-09 08:31N 52°06' E 004°16'2 4.6
2020-Jan-09 08:00N 52°06' E 004°12'6 6.0 200 / 251010.2 11.2 7.8
2020-Jan-09 07:00N 52°12' E 004°12'7 7.0 190 / 241010.0 10.4 7.9
2020-Jan-09 06:00N 52°18' E 004°06'1312.5 190 / 271010.4 10.4 7.9
2020-Jan-09 05:00N 52°30' E 004°12'7 7.0 190 / 271011.0 9.9 7.8
2020-Jan-09 04:00N 52°36' E 004°06'1312.5 160 / 241012.2 9.5 8.3
2020-Jan-09 03:00N 52°48' E 004°00'1212.0 140 / 181014.0 8.7 8.5
2020-Jan-09 02:00N 53°00' E 004°00'9 9.4 130 / 161016.4 8.4 8.7
2020-Jan-09 01:00N 53°06' E 004°12'9 9.4 150 / 101017.8 8.4 8.7
2020-Jan-09 00:00N 53°12' E 004°24'1414.0 160 / 101018.8 8.4 8.7
2020-Jan-08 23:00N 53°24' E 004°36'9 9.3 200 / 51020.0 8.7 8.9
2020-Jan-08 22:00N 53°30' E 004°48'1212.3 240 / 71021.2 8.7 8.7
2020-Jan-08 21:00N 53°36' E 005°06'1110.7 220 / 81021.1 8.2 7.9
2020-Jan-08 20:00N 53°36' E 005°24'1212.2 260 / 71021.1 8.2 7.6
2020-Jan-08 19:00N 53°42' E 005°42'1110.7 260 / 131021.2 8.4 7.7
2020-Jan-08 18:00N 53°42' E 006°00'1212.2 230 / 131021.0 8.2 7.5
2020-Jan-08 17:00N 53°48' E 006°18'7 7.1 250 / 101021.0 7.9 7.3
2020-Jan-08 16:00N 53°48' E 006°30'1212.2 250 / 121020.9 8.0 6.9
2020-Jan-08 15:00N 53°54' E 006°48'173.7 250 / 121020.4 7.9 6.7
2020-Jan-08 14:59N 53°53' E 006°49'1010.4
2020-Jan-08 14:00N 53°54' E 007°06'   240 / 151019.3 7.7 6.8
Track history (hours):
 
Tides and Currents Weather Stations Pressure Air Temp Water Temp Dewpoint Dewpoint Depression Visibility Wind Speed Wind Dir Waves Ship Positions

Oceanographic research ship Alkor (Germany)

Ship's website: http://www.briese.de/

Detailed information on ship capabilities available from University of Delaware's Ocean Information Center.

Last reported at 2020-Jan-18 13:21 UTC. Time now 2020-Jan-19 17:11 UTC.
Position N 49°44' W 003°31'.

Length 55 m; draft 4.2 m.

Type: Ship. MMSI: 211216512.

Date/timePositionNaut miles runAvg speedWind from/ knotsBaromVisibWave heightAir tempDewpointWater temp
2020-Jan-18 13:21N 49°44' W 003°31'2910.3
2020-Jan-18 10:30N 49°58' W 002°51'611.1
2020-Jan-18 09:56N 49°59' W 002°42'84 9.4
2020-Jan-18 00:56N 50°01' W 000°30'3 3.7
2020-Jan-18 00:00N 50°01' W 000°25'  
2020-Jan-14 12:00N 49°54' E 001°06'0 0.0 180 / 191002.7 12.6 9.2 9.5
2020-Jan-14 11:00N 49°54' E 001°06'0 0.0 170 / 171003.3 12.7 9.4
2020-Jan-14 10:00N 49°54' E 001°06'0 0.0 170 / 131003.8 11.4 9.2
2020-Jan-14 09:00N 49°54' E 001°06'0 0.0 170 / 111004.0 10.4 9.5
2020-Jan-14 08:00N 49°54' E 001°06'0 0.0 170 / 91003.9 9.9 9.2
2020-Jan-14 07:00N 49°54' E 001°06'0 0.0 170 / 61004.1 9.2 9.4
2020-Jan-14 06:00N 49°54' E 001°06'0 0.0 250 / 41003.8 8.8 8.0 9.2
2020-Jan-14 05:00N 49°54' E 001°06'0 0.0 240 / 41003.2 8.9 9.0
2020-Jan-14 04:00N 49°54' E 001°06'0 0.0 280 / 111002.8 9.4 9.4
2020-Jan-14 03:00N 49°54' E 001°06'0 0.0 180 / 201001.5 11.4 9.3
2020-Jan-14 02:00N 49°54' E 001°06'0 0.0 180 / 201001.9 11.2 9.2
2020-Jan-14 01:00N 49°54' E 001°06'0 0.0 180 / 221002.2 11.2 9.2
2020-Jan-14 00:00N 49°54' E 001°06'0 0.0 170 / 211002.8 11.6 7.5 9.2
2020-Jan-13 23:00N 49°54' E 001°06'0 0.0 170 / 201003.2 11.9 9.3
2020-Jan-13 22:00N 49°54' E 001°06'0 0.0 170 / 201003.9 11.5 9.2
2020-Jan-13 21:00N 49°54' E 001°06'0 0.0 180 / 211004.5 11.7 9.2
2020-Jan-13 20:00N 49°54' E 001°06'0 0.0 170 / 201005.4 11.2 9.1
2020-Jan-13 19:00N 49°54' E 001°06'0 0.0 170 / 201005.9 11.5 9.1
2020-Jan-13 18:00N 49°54' E 001°06'0 0.0 170 / 191006.5 11.5 7.3 9.0
2020-Jan-13 17:00N 49°54' E 001°06'0 0.0 170 / 181007.2 11.2 9.0
2020-Jan-13 16:00N 49°54' E 001°06'0 0.0 160 / 171007.9 10.9 9.7
2020-Jan-13 15:00N 49°54' E 001°06'0 0.0 160 / 161009.3 10.9 9.4
2020-Jan-13 14:00N 49°54' E 001°06'0 0.0 160 / 111010.8 10.2 9.2
2020-Jan-13 13:00N 49°54' E 001°06'0 0.0 170 / 121011.9 9.4 9.3
2020-Jan-13 12:00N 49°54' E 001°06'0 0.0 160 / 121013.2 8.9 9.3
2020-Jan-13 11:00N 49°54' E 001°06'0 0.0 160 / 131015.2 9.0 9.6
2020-Jan-13 10:00N 49°54' E 001°06'0 0.0 160 / 121016.8 8.4 9.7
2020-Jan-13 09:00N 49°54' E 001°06'0 0.0 170 / 131018.1 6.4 9.6
2020-Jan-13 08:00N 49°54' E 001°06'0 0.0 160 / 121018.4 6.5 9.6
2020-Jan-13 07:00N 49°54' E 001°06'0 0.0 170 / 111018.7 6.4 9.7
2020-Jan-13 06:00N 49°54' E 001°06'0 0.0 160 / 101018.8 6.7 10.3
2020-Jan-13 05:00N 49°54' E 001°06'0 0.0 170 / 91019.8 6.7 10.1
2020-Jan-13 04:00N 49°54' E 001°06'0 0.0 150 / 91020.5 5.7 9.8
2020-Jan-13 03:00N 49°54' E 001°06'0 0.0 140 / 71021.3 5.4 9.6
2020-Jan-13 02:00N 49°54' E 001°06'0 0.0 160 / 71022.2 6.4 9.3
2020-Jan-13 01:00N 49°54' E 001°06'0 0.0 160 / 61022.7 7.0 9.3
2020-Jan-13 00:00N 49°54' E 001°06'0 0.0 170 / 71023.4 7.4 9.3
2020-Jan-12 23:00N 49°54' E 001°06'0 0.0 170 / 71023.7 7.2 9.7
2020-Jan-12 22:00N 49°54' E 001°06'0 0.0 180 / 41024.1 7.7 9.8
2020-Jan-12 21:00N 49°54' E 001°06'0 0.0 170 / 51024.0 8.4 9.7
2020-Jan-12 20:00N 49°54' E 001°06'0 0.0 160 / 51024.1 8.2 9.7
2020-Jan-12 19:00N 49°54' E 001°06'0 0.0 190 / 51024.2 8.9 9.7
2020-Jan-12 18:00N 49°54' E 001°06'0 0.0 180 / 41024.0 9.4 9.9
2020-Jan-12 17:00N 49°54' E 001°06'0 0.0 240 / 61023.7 10.4 9.9
2020-Jan-12 16:00N 49°54' E 001°06'0 0.0 250 / 81023.4 10.9 9.9
2020-Jan-12 15:00N 49°54' E 001°06'0 0.0 260 / 121022.9 10.9 9.8
2020-Jan-12 14:00N 49°54' E 001°06'0 0.0 250 / 101022.1 12.0 9.4
2020-Jan-12 13:00N 49°54' E 001°06'0 0.0 240 / 111022.0 12.4 9.5
2020-Jan-12 12:00N 49°54' E 001°06'0 0.0 230 / 131022.0 12.2 9.7
2020-Jan-12 11:00N 49°54' E 001°06'0 0.0 230 / 111022.6 11.4 9.7
2020-Jan-12 10:00N 49°54' E 001°06'0 0.0 200 / 91022.6 10.2 10.0
2020-Jan-12 09:00N 49°54' E 001°06'0 0.0 200 / 111022.1 9.9 10.1
2020-Jan-12 08:00N 49°54' E 001°06'0 0.0 190 / 141021.3 9.2 10.4
2020-Jan-12 07:00N 49°54' E 001°06'0 0.0 170 / 141021.5 8.4 10.5
2020-Jan-12 06:00N 49°54' E 001°06'0 0.0 180 / 111021.9 8.2 10.3
2020-Jan-12 05:00N 49°54' E 001°06'0 0.0 160 / 161021.9 7.9 10.2
2020-Jan-12 04:00N 49°54' E 001°06'0 0.0 160 / 151022.8 7.2 10.0
2020-Jan-12 03:00N 49°54' E 001°06'0 0.0 170 / 141023.3 7.4 9.4
2020-Jan-12 02:00N 49°54' E 001°06'0 0.0 160 / 121023.8 7.5 9.6
2020-Jan-12 01:00N 49°54' E 001°06'0 0.0 160 / 131024.0 7.5 9.3
2020-Jan-12 00:00N 49°54' E 001°06'0 0.0 160 / 111024.7 8.2 9.7
2020-Jan-11 23:00N 49°54' E 001°06'0 0.0 170 / 131025.4 8.4 9.9
2020-Jan-11 22:00N 49°54' E 001°06'0 0.0 170 / 111026.2 8.2 10.0
2020-Jan-11 21:00N 49°54' E 001°06'0 0.0 170 / 121027.0 8.5 9.9
2020-Jan-11 20:00N 49°54' E 001°06'0 0.0 170 / 111027.5 8.7 9.7
2020-Jan-11 19:00N 49°54' E 001°06'0 0.0 170 / 121028.0 8.9 9.5
2020-Jan-11 18:00N 49°54' E 001°06'0 0.0 170 / 101028.3 8.9 9.9
2020-Jan-11 17:00N 49°54' E 001°06'0 0.0 170 / 111028.4 9.2 9.7
2020-Jan-11 16:00N 49°54' E 001°06'0 0.0 170 / 121028.5 9.2 9.9
2020-Jan-11 15:00N 49°54' E 001°06'0 0.0 170 / 111028.7 9.4 9.8
2020-Jan-11 14:00N 49°54' E 001°06'0 0.0 180 / 101028.9 9.4 9.6
2020-Jan-11 13:00N 49°54' E 001°06'0 0.0 190 / 81029.3 9.4 9.5
2020-Jan-11 12:00N 49°54' E 001°06'0 0.0 170 / 111030.0 8.9 9.3
2020-Jan-11 11:00N 49°54' E 001°06'0 0.0 180 / 101030.7 8.2 9.3
2020-Jan-11 10:00N 49°54' E 001°06'0 0.0 170 / 111031.3 7.9 9.1
2020-Jan-11 09:00N 49°54' E 001°06'6 6.0 180 / 161031.2 6.0 8.9
2020-Jan-11 08:00N 50°00' E 001°06'0 0.0 190 / 201031.1 6.7 9.1
2020-Jan-11 07:00N 50°00' E 001°06'0 0.0 190 / 191031.7 7.0 9.2
2020-Jan-11 06:00N 50°00' E 001°06'4 3.9 190 / 201031.9 6.9 9.2
2020-Jan-11 05:00N 50°00' E 001°00'6 6.0 200 / 191031.8 7.7 9.5
2020-Jan-11 04:00N 50°06' E 001°00'0 0.0 200 / 181031.8 7.5 9.6
2020-Jan-11 03:00N 50°06' E 001°00'0 0.0 210 / 191032.0 8.2 9.7
2020-Jan-11 02:00N 50°06' E 001°00'6 6.0 210 / 191032.1 8.7 9.7
2020-Jan-11 01:00N 50°12' E 001°00'1212.0 220 / 221031.6 9.0 9.8
2020-Jan-11 00:00N 50°24' E 001°00'1212.0 200 / 171031.4 8.9 9.9
2020-Jan-10 23:00N 50°36' E 001°00'6 6.0 220 / 141031.2 9.0 10.7
2020-Jan-10 22:00N 50°42' E 001°00'1414.2 230 / 131030.9 8.9 10.7
2020-Jan-10 21:00N 50°54' E 001°12'10 9.7 220 / 131031.0 8.4 10.5
2020-Jan-10 20:00N 51°00' E 001°24'1616.5 240 / 141030.7 7.9 10.4
2020-Jan-10 19:00N 51°12' E 001°42'1414.2 210 / 101029.9 7.7 10.0
2020-Jan-10 18:00N 51°24' E 001°54'511.3 250 / 71029.2 7.4 9.6
2020-Jan-10 17:31N 51°29' E 001°58'612.1
2020-Jan-10 17:00N 51°34' E 002°04'3187.0
2020-Jan-10 17:00N 51°36' E 002°06'10 9.6 280 / 121028.8 7.7 10.1
2020-Jan-10 16:00N 51°42' E 002°18'10 9.5 290 / 141027.7 7.5 10.3
2020-Jan-10 15:00N 51°48' E 002°30'1414.1 300 / 161026.4 7.4 10.2
2020-Jan-10 14:00N 52°00' E 002°42'7 7.4 320 / 211025.0 7.4 9.9
2020-Jan-10 13:00N 52°00' E 002°54'1111.1 340 / 161023.5 8.2 9.5
2020-Jan-10 12:00N 52°00' E 003°12'1312.6 340 / 231022.2 8.2 9.1
2020-Jan-10 11:00N 52°06' E 003°30'713.7 340 / 251020.3 7.9 8.6
2020-Jan-10 10:30N 52°04' E 003°40'510.6
2020-Jan-10 10:00N 52°06' E 003°48'1514.7 340 / 261018.4 7.9 8.5
2020-Jan-10 09:00N 52°06' E 004°12'2 5.1 330 / 211016.3 7.7 7.8
2020-Jan-10 08:30N 52°06' E 004°16'1 2.3
2020-Jan-10 08:00N 52°06' E 004°18'159.7 320 / 161014.7 7.7 8.6
2020-Jan-10 07:58N 52°06' E 004°16'0 0.0
2020-Jan-10 07:28N 52°06' E 004°16'1 2.4
2020-Jan-10 07:00N 52°06' E 004°18'0 0.0 320 / 111013.1 7.9 9.0
2020-Jan-10 06:00N 52°06' E 004°18'0 0.0 300 / 71012.2 7.9 9.1
2020-Jan-10 05:00N 52°06' E 004°18'0 0.0 230 / 91011.0 8.5 9.0
2020-Jan-10 04:00N 52°06' E 004°18'0 0.0 230 / 81010.3 9.2 9.0
2020-Jan-10 03:00N 52°06' E 004°18'0 0.0 230 / 111009.9 9.4 8.9
2020-Jan-10 02:00N 52°06' E 004°18'1 2.3 220 / 101009.1 9.7 8.8
2020-Jan-10 01:28N 52°06' E 004°16'1 2.4
2020-Jan-10 01:00N 52°06' E 004°18'158.1 220 / 101007.9 9.9 8.9
2020-Jan-10 00:58N 52°06' E 004°16'1 1.2
2020-Jan-10 00:00N 52°06' E 004°18'0 0.0 220 / 101007.7 9.9 8.8
2020-Jan-09 23:00N 52°06' E 004°18'1 1.4 220 / 111007.4 9.9 8.8
2020-Jan-09 22:10N 52°06' E 004°16'1 6.5
2020-Jan-09 22:00N 52°06' E 004°18'0 0.0 200 / 121006.5 12.2 8.5
2020-Jan-09 21:00N 52°06' E 004°18'0 0.0 200 / 131006.5 12.2 8.7
2020-Jan-09 20:00N 52°06' E 004°18'0 0.0 200 / 121006.7 12.4 8.4
2020-Jan-09 19:00N 52°06' E 004°18'156.4 200 / 121006.8 12.2 8.2
2020-Jan-09 18:58N 52°06' E 004°16'1 1.2
2020-Jan-09 18:00N 52°06' E 004°18'1 1.6 200 / 111007.1 12.0 8.9
2020-Jan-09 17:16N 52°06' E 004°16'1 4.2
2020-Jan-09 17:00N 52°06' E 004°18'0 0.0 200 / 111007.3 12.2 8.6
2020-Jan-09 16:00N 52°06' E 004°18'0 0.0 200 / 101007.3 12.4 8.6
2020-Jan-09 15:00N 52°06' E 004°18'1 2.1 200 / 101007.4 12.4 8.5
2020-Jan-09 14:25N 52°06' E 004°16'1 2.7
2020-Jan-09 14:00N 52°06' E 004°18'0 0.0 210 / 121007.5 12.7 8.4
2020-Jan-09 13:00N 52°06' E 004°18'0 0.0 210 / 161007.6 12.5 8.2
2020-Jan-09 12:00N 52°06' E 004°18'0 0.0 200 / 161008.0 12.0 8.1
2020-Jan-09 11:00N 52°06' E 004°18'0 0.0 200 / 161008.8 12.0 8.3
2020-Jan-09 10:00N 52°06' E 004°18'1 1.9 200 / 151009.5 11.7 8.1
2020-Jan-09 09:22N 52°06' E 004°16'1 3.1
2020-Jan-09 09:00N 52°06' E 004°18'158.8 200 / 151009.9 11.9 7.8
2020-Jan-09 08:58N 52°06' E 004°16'0 0.4
2020-Jan-09 08:31N 52°06' E 004°16'2 4.6
2020-Jan-09 08:00N 52°06' E 004°12'6 6.0 200 / 251010.2 11.2 7.8
2020-Jan-09 07:00N 52°12' E 004°12'7 7.0 190 / 241010.0 10.4 7.9
2020-Jan-09 06:00N 52°18' E 004°06'1312.5 190 / 271010.4 10.4 7.9
2020-Jan-09 05:00N 52°30' E 004°12'7 7.0 190 / 271011.0 9.9 7.8
2020-Jan-09 04:00N 52°36' E 004°06'1312.5 160 / 241012.2 9.5 8.3
2020-Jan-09 03:00N 52°48' E 004°00'1212.0 140 / 181014.0 8.7 8.5
2020-Jan-09 02:00N 53°00' E 004°00'9 9.4 130 / 161016.4 8.4 8.7
2020-Jan-09 01:00N 53°06' E 004°12'9 9.4 150 / 101017.8 8.4 8.7
2020-Jan-09 00:00N 53°12' E 004°24'1414.0 160 / 101018.8 8.4 8.7
2020-Jan-08 23:00N 53°24' E 004°36'9 9.3 200 / 51020.0 8.7 8.9
2020-Jan-08 22:00N 53°30' E 004°48'1212.3 240 / 71021.2 8.7 8.7
2020-Jan-08 21:00N 53°36' E 005°06'1110.7 220 / 81021.1 8.2 7.9
2020-Jan-08 20:00N 53°36' E 005°24'1212.2 260 / 71021.1 8.2 7.6
2020-Jan-08 19:00N 53°42' E 005°42'1110.7 260 / 131021.2 8.4 7.7
2020-Jan-08 18:00N 53°42' E 006°00'1212.2 230 / 131021.0 8.2 7.5
2020-Jan-08 17:00N 53°48' E 006°18'7 7.1 250 / 101021.0 7.9 7.3
2020-Jan-08 16:00N 53°48' E 006°30'1212.2 250 / 121020.9 8.0 6.9
2020-Jan-08 15:00N 53°54' E 006°48'173.7 250 / 121020.4 7.9 6.7
2020-Jan-08 14:59N 53°53' E 006°49'1010.4
2020-Jan-08 14:00N 53°54' E 007°06'   240 / 151019.3 7.7 6.8

Dump ship's entire track history